Aeroporto :
LOGIN :

Iscrizione | Disclaimer

   EN    FR    IT 

 










Sommario :    VFR   VFR Marginale   IFR   IFR Intensivo   IFR Molto Intensivo
Visibilità : 
Base nubi : 
>= 8 km
>= 3000ft
5 / 8 km
1000 / 3000 ft
1500m / 5 km
500 / 1000 ft
800 / 1500m
200 / 500 ft
< 800m
< 200 ft
Simboli :   Temporali  Nebbia  Neve Forte  Precipitazioni Forti  Vento > 20 kt
SIGMETs :   Varie  Temporali  Ghiacco  Turbolenza  Onda orograficha  Ceneri Vulcaniche







- Altitudine del aeroporto : 526 ft
- Codice IATA : LTN
- Carte del aeroporto


EGGW - London Luton

ULTIMO METAR :
  • 121520Z AUTO 19005KT 150V220 9999 NCD 00/M02 Q1008

METARs OBSOLETI :
  • 121450Z AUTO 18005KT 9999 NCD 00/M02 Q1008
  • 121420Z AUTO 19005KT 9999 NCD 01/M01 Q1008
  • 121350Z AUTO 21005KT 9999 NCD 01/M01 Q1008
  • 121320Z AUTO 19004KT 150V220 9999 NCD 02/M01 Q1008
  • 121250Z AUTO 23006KT 9999 NCD 02/M01 Q1008

TAF TAF EGGW
Valido dal 12 a 12 ore il 13 a 12 ore UTC


121103Z 1212/1312 23006KT 9999 FEW020
PROB30
TEMPO 1215/1218 6000
BECMG 1218/1221 6000
TEMPO 1221/1302 4000 RADZ BKN003
PROB30
TEMPO 1222/1302 23015G25KT
PROB30 1223/1302 0300 FG BKN001
BECMG 1302/1305 0300 FG RADZ BKN001
BECMG 1303/1305 29010KT
BECMG 1305/1308 9999 NSW FEW045
TEMPO 1308/1312 7000 SHRA BKN010
PROB40
TEMPO 1309/1312 4000 BKN007
ATIS : +44 1582 395 204
Nessun NOTAM noto per questo aeroporto.
1 SIGMET conosciuto per la FIR London (EGTT) :
 
Turbolenza severa
EGTT SIGMET 03 VALID 121500/121900 EGRR
EGTT LONDON FIR SEV TURB FCST WI N5100 W00726 - N5207 W00519 - N4934 W00416 - N4926 W00456 - N4901 W00703 - N5100 W00726 FL200/420 MOV E 05KT NC=



MetMap, La meteo Aeronautica in un colpo d'occhio ! - Copyright ORBIFLY Dicembre 2007 - Disclaimer

ORBIFLY MET'MAP TEAM :

Programmazione e sviluppo : Alexandra Zaïnal
Concezione e sviluppo : Baudouin d'Aumeries
Co-Programmazione e sviluppo : Marc-Olivier Méhu
Supporto tecnico e logistico : Manuel Goepfert
Aiuto per la traduzione : Arnaldo La Scala

Contatto : metmap@orbifly.com




FONTI E CREDITI :

   NOAA